PWSweather.com
Personal Weather Stations
Station Observations
IDALMACI22
Prvic LukaHR

Prvic LukaHR

Lat: 43.72542191, Lon: 15.7968483

Elevation: 20

Station Type: ws 2300

Latest ConditionsUpdated 6:20:03 AM GMT+01:01 Saturday, Jan 18, 2020
Currently Today's Max Today's Min Today's Average
Temperature 36.3°F2.4°C 41.7°F5.4°C 36.1°F2.3°C 38.4°F3.6°C
Dew Point 33.0°F0.6°C 37.5°F3.1°C 32.9°F0.5°C 34.9°F1.6°C
Winds Calm Calm 4.9 mph -7.9 kmh - - 0.5 mph 0.8 kmh
Wind Gusts 2.5 mph4.0 kmh 4.9 mph7.9 kmh - -
Humidity 88% 88% 85% 87%
Pressure 30.15 in1021.0 mb 30.18 in1022.0 mb 30.15 in1021.0 mb -
Hour Temp Dew Point Humidity Winds Wind Gusts Pressure Precip Precip Rate Daily Precip Total
06:20 AM 36.3°F2.4°C 33.0°F0.6°C 88% Calm Calm 2.5 mph4.0 kmh 30.15 in1021.0 mb 0.00 in0.0 mm 0.00 in0.0 mm 0.00 in0.0 mm
06:10 AM 36.3°F2.4°C 33.0°F0.6°C 88% 0.9 mph WSW1.4 kmh WSW 0.9 mph1.4 kmh 30.15 in1021.0 mb 0.00 in0.0 mm 0.00 in0.0 mm 0.00 in0.0 mm
06:00 AM 36.3°F2.4°C 33.0°F0.6°C 88% Calm Calm -- 30.15 in1021.0 mb 0.00 in0.0 mm 0.00 in0.0 mm 0.00 in0.0 mm
05:50 AM 36.1°F2.3°C 32.9°F0.5°C 88% Calm Calm -- 30.15 in1021.0 mb 0.00 in0.0 mm 0.00 in0.0 mm 0.00 in0.0 mm
05:40 AM 36.1°F2.3°C 32.9°F0.5°C 88% Calm Calm -- 30.15 in1021.0 mb 0.00 in0.0 mm 0.00 in0.0 mm 0.00 in0.0 mm
05:30 AM 36.3°F2.4°C 33.0°F0.6°C 88% Calm Calm -- 30.15 in1021.0 mb 0.00 in0.0 mm 0.00 in0.0 mm 0.00 in0.0 mm
05:20 AM 36.3°F2.4°C 33.0°F0.6°C 88% Calm Calm -- 30.15 in1021.0 mb 0.00 in0.0 mm 0.00 in0.0 mm 0.00 in0.0 mm
05:10 AM 36.5°F2.5°C 33.2°F0.7°C 88% Calm Calm -- 30.15 in1021.0 mb 0.00 in0.0 mm 0.00 in0.0 mm 0.00 in0.0 mm
05:00 AM 36.9°F2.7°C 33.6°F0.9°C 88% Calm Calm -- 30.15 in1021.0 mb 0.00 in0.0 mm 0.00 in0.0 mm 0.00 in0.0 mm
04:50 AM 37.2°F2.9°C 33.9°F1.1°C 88% Calm Calm -- 30.16 in1021.3 mb 0.00 in0.0 mm 0.00 in0.0 mm 0.00 in0.0 mm
04:40 AM 37.2°F2.9°C 33.9°F1.1°C 88% Calm Calm -- 30.16 in1021.3 mb 0.00 in0.0 mm 0.00 in0.0 mm 0.00 in0.0 mm
04:30 AM 37.4°F3.0°C 34.1°F1.2°C 88% Calm Calm -- 30.16 in1021.3 mb 0.00 in0.0 mm 0.00 in0.0 mm 0.00 in0.0 mm
04:20 AM 37.6°F3.1°C 34.3°F1.3°C 88% Calm Calm -- 30.16 in1021.3 mb 0.00 in0.0 mm 0.00 in0.0 mm 0.00 in0.0 mm
04:10 AM 37.8°F3.2°C 34.5°F1.4°C 88% Calm Calm -- 30.16 in1021.3 mb 0.00 in0.0 mm 0.00 in0.0 mm 0.00 in0.0 mm
04:00 AM 37.9°F3.3°C 34.7°F1.5°C 88% Calm Calm -- 30.16 in1021.3 mb 0.00 in0.0 mm 0.00 in0.0 mm 0.00 in0.0 mm
03:50 AM 37.9°F3.3°C 34.4°F1.3°C 87% Calm Calm -- 30.16 in1021.3 mb 0.00 in0.0 mm 0.00 in0.0 mm 0.00 in0.0 mm
03:40 AM 38.5°F3.6°C 34.9°F1.6°C 87% Calm Calm -- 30.16 in1021.3 mb 0.00 in0.0 mm 0.00 in0.0 mm 0.00 in0.0 mm
03:30 AM 38.8°F3.8°C 35.3°F1.8°C 87% Calm Calm -- 30.17 in1021.7 mb 0.00 in0.0 mm 0.00 in0.0 mm 0.00 in0.0 mm
03:20 AM 38.8°F3.8°C 35.3°F1.8°C 87% Calm Calm 3.1 mph5.0 kmh 30.17 in1021.7 mb 0.00 in0.0 mm 0.00 in0.0 mm 0.00 in0.0 mm
03:10 AM 38.8°F3.8°C 35.3°F1.8°C 87% Calm Calm 2.5 mph4.0 kmh 30.17 in1021.7 mb 0.00 in0.0 mm 0.00 in0.0 mm 0.00 in0.0 mm
03:00 AM 38.8°F3.8°C 35.3°F1.8°C 87% 1.3 mph NNE2.1 kmh NNE 1.3 mph2.1 kmh 30.17 in1021.7 mb 0.00 in0.0 mm 0.00 in0.0 mm 0.00 in0.0 mm
02:50 AM 38.8°F3.8°C 35.3°F1.8°C 87% Calm Calm 2.5 mph4.0 kmh 30.17 in1021.7 mb 0.00 in0.0 mm 0.00 in0.0 mm 0.00 in0.0 mm
02:40 AM 39.0°F3.9°C 35.5°F1.9°C 87% 2.5 mph N4.0 kmh N 2.9 mph4.7 kmh 30.18 in1022.0 mb 0.00 in0.0 mm 0.00 in0.0 mm 0.00 in0.0 mm
02:30 AM 39.0°F3.9°C 35.5°F1.9°C 87% Calm Calm 1.6 mph2.6 kmh 30.18 in1022.0 mb 0.00 in0.0 mm 0.00 in0.0 mm 0.00 in0.0 mm
02:20 AM 39.0°F3.9°C 35.5°F1.9°C 87% 1.6 mph N2.6 kmh N 1.8 mph2.9 kmh 30.18 in1022.0 mb 0.00 in0.0 mm 0.00 in0.0 mm 0.00 in0.0 mm
02:10 AM 39.4°F4.1°C 35.8°F2.1°C 87% Calm Calm 3.8 mph6.1 kmh 30.18 in1022.0 mb 0.00 in0.0 mm 0.00 in0.0 mm 0.00 in0.0 mm
02:00 AM 39.4°F4.1°C 35.8°F2.1°C 87% 3.8 mph NNE6.1 kmh NNE 4.9 mph7.9 kmh 30.18 in1022.0 mb 0.00 in0.0 mm 0.00 in0.0 mm 0.00 in0.0 mm
01:50 AM 39.4°F4.1°C 35.8°F2.1°C 87% 4.9 mph N7.9 kmh N 4.9 mph7.9 kmh 30.18 in1022.0 mb 0.00 in0.0 mm 0.00 in0.0 mm 0.00 in0.0 mm
01:40 AM 39.4°F4.1°C 35.8°F2.1°C 87% 2.2 mph N3.5 kmh N 2.9 mph4.7 kmh 30.18 in1022.0 mb 0.00 in0.0 mm 0.00 in0.0 mm 0.00 in0.0 mm
01:30 AM 39.6°F4.2°C 35.7°F2.1°C 86% Calm Calm -- 30.17 in1021.7 mb 0.00 in0.0 mm 0.00 in0.0 mm 0.00 in0.0 mm
01:20 AM 39.6°F4.2°C 35.7°F2.1°C 86% Calm Calm 2.0 mph3.2 kmh 30.18 in1022.0 mb 0.00 in0.0 mm 0.00 in0.0 mm 0.00 in0.0 mm
01:10 AM 39.7°F4.3°C 35.9°F2.2°C 86% Calm Calm -- 30.17 in1021.7 mb 0.00 in0.0 mm 0.00 in0.0 mm 0.00 in0.0 mm
01:00 AM 39.6°F4.2°C 35.7°F2.1°C 86% Calm Calm -- 30.17 in1021.7 mb 0.00 in0.0 mm 0.00 in0.0 mm 0.00 in0.0 mm
12:50 AM 39.9°F4.4°C 36.0°F2.2°C 86% Calm Calm 1.6 mph2.6 kmh 30.17 in1021.7 mb 0.00 in0.0 mm 0.00 in0.0 mm 0.00 in0.0 mm
12:40 AM 40.1°F4.5°C 36.2°F2.3°C 86% 1.6 mph N2.6 kmh N 1.6 mph2.6 kmh 30.18 in1022.0 mb 0.00 in0.0 mm 0.00 in0.0 mm 0.00 in0.0 mm
12:30 AM 40.3°F4.6°C 36.1°F2.3°C 85% Calm Calm -- 30.18 in1022.0 mb 0.00 in0.0 mm 0.00 in0.0 mm 0.00 in0.0 mm
12:20 AM 40.6°F4.8°C 36.7°F2.6°C 86% Calm Calm -- 30.18 in1022.0 mb 0.00 in0.0 mm 0.00 in0.0 mm 0.00 in0.0 mm
12:10 AM 41.0°F5.0°C 37.1°F2.8°C 86% Calm Calm -- 30.18 in1022.0 mb 0.00 in0.0 mm 0.00 in0.0 mm 0.00 in0.0 mm
12:00 AM 41.7°F5.4°C 37.5°F3.1°C 85% Calm Calm -- 30.18 in1022.0 mb 0.00 in0.0 mm 0.00 in0.0 mm 0.00 in0.0 mm